createdAt,value
2018-08-10T00:01:57.277Z,83.86
2018-08-10T00:04:25.835Z,84.45
2018-08-10T00:06:54.365Z,84.61
2018-08-10T00:09:22.983Z,83.95
2018-08-10T00:11:51.549Z,84.42
2018-08-10T00:14:20.202Z,83.73
2018-08-10T00:16:48.822Z,84.30
2018-08-10T00:19:17.423Z,83.69
2018-08-10T00:21:45.991Z,83.88
2018-08-10T00:24:14.521Z,83.12
2018-08-10T00:26:43.103Z,83.82
2018-08-10T00:29:11.650Z,84.14
2018-08-10T00:31:40.355Z,83.85
2018-08-10T00:34:08.983Z,83.91
2018-08-10T00:36:37.553Z,83.79
2018-08-10T00:39:10.153Z,83.22
2018-08-10T00:41:39.085Z,82.91
2018-08-10T00:44:07.574Z,81.08
2018-08-10T00:46:42.766Z,82.43
2018-08-10T00:49:11.296Z,82.33
2018-08-10T00:51:39.797Z,81.56
2018-08-10T00:54:08.722Z,81.56
2018-08-10T00:56:37.839Z,81.91
2018-08-10T00:59:06.354Z,81.96
2018-08-10T01:01:35.241Z,82.17
2018-08-10T01:04:03.839Z,82.78
2018-08-10T01:06:32.334Z,82.57
2018-08-10T01:09:00.838Z,82.40
2018-08-10T01:11:29.742Z,82.33
2018-08-10T01:13:58.288Z,82.18
2018-08-10T01:16:26.865Z,82.36
2018-08-10T01:18:55.922Z,83.03
2018-08-10T01:21:24.453Z,82.44
2018-08-10T01:23:52.995Z,82.26
2018-08-10T01:26:21.552Z,82.33
2018-08-10T01:28:50.249Z,82.69
2018-08-10T01:31:18.645Z,83.02
2018-08-10T01:33:47.144Z,82.53
2018-08-10T01:36:15.740Z,82.40
2018-08-10T01:38:44.318Z,82.60
2018-08-10T01:41:12.853Z,82.76
2018-08-10T01:43:41.393Z,82.00
2018-08-10T01:46:09.996Z,82.68
2018-08-10T01:48:38.506Z,82.41
2018-08-10T01:51:08.043Z,81.80
2018-08-10T01:54:09.204Z,81.69
2018-08-10T01:56:37.796Z,81.11
2018-08-10T01:59:06.306Z,80.69
2018-08-10T02:01:34.824Z,81.53
2018-08-10T02:04:03.467Z,81.68
2018-08-10T02:06:31.943Z,81.58
2018-08-10T02:09:00.651Z,80.92
2018-08-10T02:11:29.146Z,81.55
2018-08-10T02:13:57.709Z,81.23
2018-08-10T02:16:26.289Z,80.87
2018-08-10T02:18:54.842Z,81.56
2018-08-10T02:21:23.562Z,82.41
2018-08-10T02:23:52.357Z,83.40
2018-08-10T02:26:20.874Z,83.83
2018-08-10T02:28:49.399Z,83.56
2018-08-10T02:31:17.981Z,84.50
2018-08-10T02:33:46.743Z,85.25
2018-08-10T02:36:15.216Z,85.59
2018-08-10T02:38:43.741Z,86.02
2018-08-10T02:41:12.304Z,85.30
2018-08-10T02:43:40.837Z,85.14
2018-08-10T02:46:09.402Z,84.89
2018-08-10T02:48:37.999Z,84.58
2018-08-10T02:51:06.537Z,84.42
2018-08-10T02:53:35.038Z,83.90
2018-08-10T02:56:04.005Z,84.89
2018-08-10T02:58:32.500Z,83.87
2018-08-10T03:01:01.019Z,84.10
2018-08-10T03:03:29.724Z,84.47
2018-08-10T03:05:58.267Z,84.34
2018-08-10T03:08:26.785Z,84.30
2018-08-10T03:10:55.333Z,84.25
2018-08-10T03:13:23.913Z,83.78
2018-08-10T03:15:52.457Z,83.64
2018-08-10T03:18:20.961Z,83.91
2018-08-10T03:20:49.794Z,84.12
2018-08-10T03:23:18.531Z,84.04
2018-08-10T03:25:47.026Z,83.70
2018-08-10T03:28:15.583Z,84.08
2018-08-10T03:30:44.071Z,84.33
2018-08-10T03:33:12.555Z,83.96
2018-08-10T03:35:41.124Z,83.84
2018-08-10T03:38:09.642Z,83.38
2018-08-10T03:40:38.104Z,83.96
2018-08-10T03:43:06.978Z,83.74
2018-08-10T03:45:35.543Z,84.42
2018-08-10T03:48:04.508Z,84.37
2018-08-10T03:50:33.594Z,84.66
2018-08-10T03:53:02.895Z,84.62
2018-08-10T03:55:31.374Z,84.64
2018-08-10T03:57:59.890Z,84.46
2018-08-10T04:00:28.405Z,84.44
2018-08-10T04:02:56.938Z,83.90
2018-08-10T04:05:25.521Z,83.94
2018-08-10T04:07:54.067Z,83.88
2018-08-10T04:10:22.573Z,84.43
2018-08-10T04:12:51.050Z,84.12
2018-08-10T04:15:19.709Z,84.15
2018-08-10T04:17:54.937Z,84.54
2018-08-10T04:20:23.478Z,84.22
2018-08-10T04:22:52.155Z,84.47
2018-08-10T04:25:23.109Z,84.59
2018-08-10T04:27:51.778Z,84.89
2018-08-10T04:30:20.316Z,84.35
2018-08-10T04:32:48.863Z,84.38
2018-08-10T04:35:17.732Z,84.54
2018-08-10T04:37:46.451Z,84.25
2018-08-10T04:40:14.961Z,84.36
2018-08-10T04:42:43.496Z,83.68
2018-08-10T04:45:12.041Z,83.51
2018-08-10T04:47:45.744Z,83.52
2018-08-10T04:50:14.375Z,83.52
2018-08-10T04:52:43.281Z,83.82
2018-08-10T04:55:12.066Z,83.59
2018-08-10T04:57:40.713Z,82.93
2018-08-10T05:00:11.513Z,82.15
2018-08-10T05:02:40.110Z,82.16
2018-08-10T05:05:09.591Z,81.94
2018-08-10T05:07:38.246Z,81.76
2018-08-10T05:10:06.783Z,81.31
2018-08-10T05:12:35.366Z,80.94
2018-08-10T05:15:03.996Z,80.30
2018-08-10T05:17:32.477Z,80.48
2018-08-10T05:20:01.049Z,79.64
2018-08-10T05:22:29.977Z,79.17
2018-08-10T05:24:59.037Z,79.68
2018-08-10T05:27:27.581Z,78.92
2018-08-10T05:29:56.127Z,77.52
2018-08-10T05:32:24.626Z,76.47
2018-08-10T05:34:53.262Z,75.20
2018-08-10T05:37:21.862Z,73.87
2018-08-10T05:39:50.381Z,73.50
2018-08-10T05:42:19.147Z,69.60
2018-08-10T05:44:47.643Z,71.77
2018-08-10T05:47:16.214Z,63.61
2018-08-10T05:49:44.689Z,57.05
2018-08-10T05:52:13.218Z,52.12
2018-08-10T05:54:41.737Z,50.31
2018-08-10T05:57:10.265Z,50.35
2018-08-10T05:59:38.843Z,51.53
2018-08-10T06:02:07.418Z,52.46
2018-08-10T06:04:35.915Z,48.71
2018-08-10T06:07:04.500Z,47.80
2018-08-10T06:09:33.053Z,48.80
2018-08-10T06:12:01.588Z,47.52
2018-08-10T06:14:30.097Z,46.22
2018-08-10T06:16:58.674Z,50.07
2018-08-10T06:19:27.211Z,49.94
2018-08-10T06:21:55.753Z,50.32
2018-08-10T06:24:24.323Z,47.18
2018-08-10T06:26:52.899Z,45.91
2018-08-10T06:29:21.918Z,45.48
2018-08-10T06:31:50.430Z,43.28
2018-08-10T06:34:18.989Z,44.00
2018-08-10T06:36:47.453Z,43.65
2018-08-10T06:39:15.944Z,45.50
2018-08-10T06:41:44.436Z,45.10
2018-08-10T06:44:12.974Z,47.47
2018-08-10T06:46:41.489Z,47.53
2018-08-10T06:49:10.040Z,46.37
2018-08-10T06:51:38.664Z,44.71
2018-08-10T06:54:07.133Z,43.62
2018-08-10T06:56:35.755Z,44.42
2018-08-10T06:59:04.306Z,47.40
2018-08-10T07:01:32.881Z,56.18
2018-08-10T07:04:01.419Z,61.57
2018-08-10T07:06:29.902Z,64.77
2018-08-10T07:08:58.703Z,66.49
2018-08-10T07:11:27.226Z,67.92
2018-08-10T07:13:55.771Z,68.80
2018-08-10T07:16:24.338Z,68.40
2018-08-10T07:18:53.278Z,68.70
2018-08-10T07:21:21.815Z,68.77
2018-08-10T07:23:50.346Z,68.55
2018-08-10T07:26:18.919Z,69.82
2018-08-10T07:28:47.461Z,68.06
2018-08-10T07:31:16.028Z,66.68
2018-08-10T07:33:44.538Z,67.89
2018-08-10T07:36:13.025Z,67.60
2018-08-10T07:38:41.625Z,66.48
2018-08-10T07:41:10.190Z,67.39
2018-08-10T07:43:38.706Z,66.21
2018-08-10T07:46:07.230Z,66.90
2018-08-10T07:48:39.891Z,66.55
2018-08-10T07:51:08.546Z,66.89
2018-08-10T07:53:37.054Z,66.02
2018-08-10T07:56:05.599Z,65.30
2018-08-10T07:58:34.136Z,64.61
2018-08-10T08:01:02.694Z,64.65
2018-08-10T08:03:31.307Z,64.46
2018-08-10T08:06:00.351Z,64.26
2018-08-10T08:08:28.905Z,63.99
2018-08-10T08:10:57.427Z,64.33
2018-08-10T08:13:25.989Z,63.73
2018-08-10T08:15:54.513Z,63.42
2018-08-10T08:18:23.161Z,63.20
2018-08-10T08:21:04.650Z,62.66
2018-08-10T08:23:33.214Z,62.75
2018-08-10T08:26:02.335Z,62.82
2018-08-10T08:28:31.334Z,61.24
2018-08-10T08:31:00.966Z,61.67
2018-08-10T08:33:29.515Z,61.40
2018-08-10T08:35:59.047Z,60.56
2018-08-10T08:38:38.953Z,60.34
2018-08-10T08:41:08.856Z,59.60
2018-08-10T08:46:21.648Z,58.45
2018-08-10T08:48:51.399Z,60.15
2018-08-10T08:51:21.552Z,59.20
2018-08-10T08:54:01.150Z,58.65
2018-08-10T08:56:37.765Z,58.49
2018-08-10T08:59:06.281Z,57.28
2018-08-10T09:01:34.874Z,59.48
2018-08-10T09:04:55.090Z,59.16
2018-08-10T09:07:23.762Z,59.50
2018-08-10T09:09:52.303Z,57.76
2018-08-10T09:12:20.857Z,57.32
2018-08-10T09:14:53.706Z,56.28
2018-08-10T09:17:22.281Z,55.99
2018-08-10T09:19:50.917Z,55.54
2018-08-10T09:22:19.462Z,54.64
2018-08-10T09:24:48.021Z,55.15
2018-08-10T09:27:16.612Z,54.73
2018-08-10T09:29:45.125Z,56.31
2018-08-10T09:32:13.694Z,54.13
2018-08-10T09:34:42.202Z,53.71
2018-08-10T09:37:11.427Z,54.11
2018-08-10T09:39:39.948Z,54.00
2018-08-10T09:42:08.787Z,54.48
2018-08-10T09:44:37.387Z,54.49
2018-08-10T09:47:06.626Z,53.54
2018-08-10T09:49:41.211Z,53.63
2018-08-10T09:52:09.800Z,54.20
2018-08-10T09:54:51.229Z,54.91
2018-08-10T09:57:19.759Z,54.85
2018-08-10T09:59:48.689Z,53.14
2018-08-10T10:02:21.895Z,53.04
2018-08-10T10:04:50.495Z,50.20
2018-08-10T10:07:19.149Z,49.56
2018-08-10T10:09:48.091Z,50.09
2018-08-10T10:12:17.021Z,47.01
2018-08-10T10:14:45.630Z,47.88
2018-08-10T10:17:14.158Z,46.32
2018-08-10T10:19:42.755Z,46.01
2018-08-10T10:22:11.365Z,48.55
2018-08-10T10:24:40.117Z,48.30
2018-08-10T10:27:08.715Z,47.54
2018-08-10T10:29:37.257Z,46.50
2018-08-10T10:32:05.878Z,46.59
2018-08-10T10:34:34.384Z,46.53
2018-08-10T10:37:02.894Z,45.68
2018-08-10T10:39:31.499Z,46.09
2018-08-10T10:42:00.039Z,46.23
2018-08-10T10:44:28.538Z,44.61
2018-08-10T10:46:57.047Z,43.45
2018-08-10T10:49:25.825Z,43.35
2018-08-10T10:51:54.386Z,43.18
2018-08-10T10:54:22.953Z,43.14
2018-08-10T10:56:51.596Z,42.24
2018-08-10T10:59:20.057Z,41.64
2018-08-10T11:01:49.209Z,41.89
2018-08-10T11:04:17.749Z,43.93
2018-08-10T11:06:46.269Z,43.61
2018-08-10T11:09:14.822Z,44.56
2018-08-10T11:11:43.333Z,44.07
2018-08-10T11:14:11.923Z,44.07
2018-08-10T11:16:40.417Z,44.11
2018-08-10T11:19:08.990Z,43.31
2018-08-10T11:21:38.576Z,42.83
2018-08-10T11:24:07.265Z,43.43
2018-08-10T11:26:35.952Z,43.13
2018-08-10T11:29:04.628Z,43.97
2018-08-10T11:31:33.785Z,42.57
2018-08-10T11:34:02.278Z,42.89
2018-08-10T11:36:30.829Z,41.09
2018-08-10T11:38:59.298Z,42.39
2018-08-10T11:41:27.892Z,43.28
2018-08-10T11:43:56.397Z,44.88
2018-08-10T11:46:24.946Z,44.46
2018-08-10T11:48:57.338Z,44.08
2018-08-10T11:51:29.129Z,43.08
2018-08-10T11:53:57.670Z,41.24
2018-08-10T11:56:26.209Z,41.07
2018-08-10T11:58:55.461Z,39.70
2018-08-10T12:01:23.997Z,39.56
2018-08-10T12:03:52.559Z,39.78
2018-08-10T12:06:21.339Z,40.94
2018-08-10T12:08:56.306Z,40.50
2018-08-10T12:11:24.877Z,42.93
2018-08-10T12:13:53.372Z,40.35
2018-08-10T12:16:21.905Z,39.48
2018-08-10T12:18:50.643Z,40.53
2018-08-10T12:21:19.144Z,40.43
2018-08-10T12:23:47.691Z,41.44
2018-08-10T12:26:16.217Z,39.99
2018-08-10T12:28:44.806Z,38.98
2018-08-10T12:31:13.303Z,39.91
2018-08-10T12:33:41.794Z,39.28
2018-08-10T12:36:10.352Z,40.37
2018-08-10T12:38:39.501Z,40.48
2018-08-10T12:41:08.082Z,38.98
2018-08-10T12:43:36.611Z,38.21
2018-08-10T12:46:05.165Z,40.25
2018-08-10T12:48:33.783Z,41.31
2018-08-10T12:51:02.297Z,41.50
2018-08-10T12:53:30.793Z,40.65
2018-08-10T12:55:59.302Z,40.89
2018-08-10T12:58:27.884Z,41.55
2018-08-10T13:00:56.357Z,40.76
2018-08-10T13:03:25.009Z,40.33
2018-08-10T13:05:53.472Z,41.07
2018-08-10T13:08:22.001Z,41.01
2018-08-10T13:10:50.527Z,40.03
2018-08-10T13:13:19.059Z,38.51
2018-08-10T13:15:47.595Z,40.23
2018-08-10T13:18:16.109Z,39.01
2018-08-10T13:20:44.680Z,39.74
2018-08-10T13:23:13.184Z,39.51
2018-08-10T13:25:41.633Z,40.93
2018-08-10T13:28:10.205Z,40.72
2018-08-10T13:30:38.749Z,40.73
2018-08-10T13:33:07.242Z,41.00
2018-08-10T13:35:35.891Z,40.43
2018-08-10T13:38:04.356Z,40.30
2018-08-10T13:40:32.968Z,40.56
2018-08-10T13:43:01.500Z,40.47
2018-08-10T13:45:30.005Z,40.47
2018-08-10T13:47:58.832Z,39.80
2018-08-10T13:50:27.323Z,40.59
2018-08-10T13:52:55.825Z,40.12
2018-08-10T13:55:24.419Z,39.13
2018-08-10T13:57:52.899Z,38.63
2018-08-10T14:00:23.480Z,38.42
2018-08-10T14:02:54.193Z,39.25
2018-08-10T14:05:23.398Z,39.53
2018-08-10T14:07:52.589Z,39.65
2018-08-10T14:10:21.211Z,38.72
2018-08-10T14:12:49.755Z,38.78
2018-08-10T14:15:18.238Z,38.71
2018-08-10T14:17:46.756Z,39.19
2018-08-10T14:20:15.287Z,39.47
2018-08-10T14:22:43.769Z,40.10
2018-08-10T14:25:12.707Z,41.70
2018-08-10T14:27:42.582Z,41.26
2018-08-10T14:30:18.816Z,42.62
2018-08-10T14:32:47.388Z,42.73
2018-08-10T14:35:15.909Z,43.37
2018-08-10T14:37:44.436Z,43.27
2018-08-10T14:40:14.169Z,44.04
2018-08-10T14:42:42.705Z,44.30
2018-08-10T14:45:14.117Z,45.29
2018-08-10T14:47:42.785Z,44.42
2018-08-10T14:50:12.921Z,49.51
2018-08-10T14:52:41.568Z,50.06
2018-08-10T14:55:12.117Z,51.40
2018-08-10T14:57:41.028Z,55.35
2018-08-10T15:00:15.480Z,55.52
2018-08-10T15:02:44.210Z,56.56
2018-08-10T15:05:12.721Z,56.64
2018-08-10T15:07:41.364Z,55.41
2018-08-10T15:10:11.662Z,51.93
2018-08-10T15:12:40.421Z,51.66
2018-08-10T15:15:11.204Z,51.72
2018-08-10T15:17:39.745Z,49.13
2018-08-10T15:20:10.137Z,45.84
2018-08-10T15:22:38.652Z,45.16
2018-08-10T15:25:08.050Z,43.21
2018-08-10T15:27:36.781Z,42.54
2018-08-10T15:30:06.661Z,42.89
2018-08-10T15:32:35.117Z,43.86
2018-08-10T15:35:03.673Z,43.30
2018-08-10T15:37:32.487Z,42.62
2018-08-10T15:40:00.927Z,42.88
2018-08-10T15:42:29.415Z,42.86
2018-08-10T15:44:58.208Z,44.21
2018-08-10T15:47:26.741Z,44.34
2018-08-10T15:49:55.240Z,43.08
2018-08-10T15:52:23.737Z,43.60
2018-08-10T15:54:52.327Z,42.90
2018-08-10T15:57:20.814Z,42.26
2018-08-10T15:59:49.337Z,42.58
2018-08-10T16:02:17.829Z,41.18
2018-08-10T16:04:46.314Z,41.91
2018-08-10T16:07:14.821Z,41.05
2018-08-10T16:09:43.350Z,39.68
2018-08-10T16:12:11.956Z,41.32
2018-08-10T16:14:40.477Z,41.52
2018-08-10T16:17:08.961Z,42.17
2018-08-10T16:19:38.246Z,42.30
2018-08-10T16:22:07.888Z,41.28
2018-08-10T16:24:36.403Z,40.64
2018-08-10T16:27:04.873Z,39.48
2018-08-10T16:29:33.410Z,40.29
2018-08-10T16:32:01.924Z,39.39
2018-08-10T16:34:30.396Z,40.76
2018-08-10T16:36:58.885Z,40.12
2018-08-10T16:39:27.344Z,40.86
2018-08-10T16:41:56.179Z,40.50
2018-08-10T16:44:24.727Z,39.52
2018-08-10T16:46:53.206Z,39.94
2018-08-10T16:49:21.688Z,38.88
2018-08-10T16:51:50.299Z,39.36
2018-08-10T16:54:18.847Z,38.21
2018-08-10T16:56:47.408Z,38.46
2018-08-10T16:59:15.972Z,38.74
2018-08-10T17:01:44.433Z,38.42
2018-08-10T17:04:12.898Z,37.84
2018-08-10T17:06:41.393Z,37.90
2018-08-10T17:09:10.860Z,37.95
2018-08-10T17:11:39.422Z,37.08
2018-08-10T17:14:08.440Z,37.64
2018-08-10T17:16:37.326Z,37.06
2018-08-10T17:19:05.922Z,37.11
2018-08-10T17:21:34.413Z,36.17
2018-08-10T17:24:02.938Z,35.77
2018-08-10T17:26:31.452Z,35.85
2018-08-10T17:28:59.948Z,36.20
2018-08-10T17:31:28.455Z,36.55
2018-08-10T17:33:56.943Z,36.72
2018-08-10T17:36:25.532Z,38.01
2018-08-10T17:38:54.033Z,37.07
2018-08-10T17:41:22.503Z,38.46
2018-08-10T17:43:51.103Z,37.88
2018-08-10T17:46:19.580Z,38.32
2018-08-10T17:48:48.113Z,38.30
2018-08-10T17:51:16.695Z,38.76
2018-08-10T17:53:45.217Z,38.98
2018-08-10T17:56:13.757Z,39.98
2018-08-10T17:58:42.307Z,40.97
2018-08-10T18:01:10.892Z,41.18
2018-08-10T18:03:39.381Z,42.05
2018-08-10T18:06:08.149Z,41.30
2018-08-10T18:08:36.668Z,42.31
2018-08-10T18:11:05.204Z,42.47
2018-08-10T18:13:33.749Z,43.01
2018-08-10T18:16:02.265Z,42.75
2018-08-10T18:18:30.854Z,42.86
2018-08-10T18:20:59.411Z,43.38
2018-08-10T18:23:27.917Z,44.31
2018-08-10T18:25:56.533Z,44.28
2018-08-10T18:28:25.061Z,44.92
2018-08-10T18:30:53.578Z,44.88
2018-08-10T18:33:22.118Z,44.54
2018-08-10T18:35:50.590Z,45.43
2018-08-10T18:38:19.116Z,46.00
2018-08-10T18:40:47.638Z,45.69
2018-08-10T18:43:16.109Z,45.79
2018-08-10T18:45:44.617Z,46.87
2018-08-10T18:48:13.173Z,47.02
2018-08-10T18:50:41.791Z,46.33
2018-08-10T18:53:10.271Z,46.98
2018-08-10T18:55:38.755Z,46.39
2018-08-10T18:58:07.241Z,47.06
2018-08-10T19:00:35.810Z,47.00
2018-08-10T19:03:04.482Z,48.00
2018-08-10T19:05:32.992Z,47.93
2018-08-10T19:08:01.488Z,47.62
2018-08-10T19:10:30.093Z,47.64
2018-08-10T19:12:58.662Z,47.85
2018-08-10T19:15:27.338Z,47.48
2018-08-10T19:17:55.871Z,47.26
2018-08-10T19:20:24.368Z,47.52
2018-08-10T19:22:52.849Z,47.66
2018-08-10T19:25:21.379Z,46.58
2018-08-10T19:27:49.978Z,46.61
2018-08-10T19:30:19.957Z,47.74
2018-08-10T19:32:48.930Z,47.35
2018-08-10T19:35:18.199Z,47.13
2018-08-10T19:37:46.712Z,47.81
2018-08-10T19:40:16.550Z,46.93
2018-08-10T19:42:45.173Z,46.34
2018-08-10T19:45:14.770Z,46.70
2018-08-10T19:47:43.752Z,46.71
2018-08-10T19:50:13.453Z,46.96
2018-08-10T19:52:41.989Z,47.04
2018-08-10T19:55:12.779Z,47.02
2018-08-10T19:57:41.318Z,46.97
2018-08-10T20:00:11.568Z,46.93
2018-08-10T20:02:40.093Z,46.81
2018-08-10T20:05:09.452Z,46.75
2018-08-10T20:07:38.108Z,46.08
2018-08-10T20:10:07.692Z,47.19
2018-08-10T20:12:36.608Z,46.05
2018-08-10T20:15:06.817Z,46.81
2018-08-10T20:17:36.148Z,46.84
2018-08-10T20:20:05.336Z,46.70
2018-08-10T20:22:33.826Z,46.39
2018-08-10T20:25:02.328Z,47.15
2018-08-10T20:27:30.849Z,47.29
2018-08-10T20:29:59.373Z,47.43
2018-08-10T20:32:27.940Z,45.27
2018-08-10T20:34:56.658Z,46.66
2018-08-10T20:37:25.193Z,45.34
2018-08-10T20:39:53.765Z,45.77
2018-08-10T20:42:22.389Z,44.37
2018-08-10T20:44:50.984Z,47.74
2018-08-10T20:47:19.498Z,44.61
2018-08-10T20:49:48.057Z,44.42
2018-08-10T20:52:16.573Z,45.58
2018-08-10T20:54:45.129Z,45.03
2018-08-10T20:57:13.654Z,50.90
2018-08-10T20:59:42.157Z,47.91
2018-08-10T21:02:10.758Z,45.10
2018-08-10T21:04:39.296Z,46.41
2018-08-10T21:07:07.805Z,45.17
2018-08-10T21:09:36.313Z,45.32
2018-08-10T21:12:04.895Z,46.29
2018-08-10T21:14:33.376Z,49.00
2018-08-10T21:17:02.144Z,52.58
2018-08-10T21:19:30.647Z,53.99
2018-08-10T21:21:59.139Z,55.25
2018-08-10T21:24:28.049Z,55.30
2018-08-10T21:26:56.667Z,55.40
2018-08-10T21:29:25.185Z,56.36
2018-08-10T21:31:53.701Z,57.02
2018-08-10T21:34:22.352Z,57.02
2018-08-10T21:36:50.833Z,57.66
2018-08-10T21:39:19.339Z,57.86
2018-08-10T21:41:48.116Z,57.94
2018-08-10T21:44:16.701Z,59.08
2018-08-10T21:46:45.537Z,58.98
2018-08-10T21:49:17.069Z,58.75
2018-08-10T21:51:45.648Z,59.66
2018-08-10T21:54:14.196Z,59.73
2018-08-10T21:56:42.784Z,60.22
2018-08-10T21:59:11.327Z,59.98
2018-08-10T22:01:40.015Z,60.10
2018-08-10T22:04:08.611Z,59.79
2018-08-10T22:06:37.105Z,60.74
2018-08-10T22:09:07.032Z,59.99
2018-08-10T22:11:35.553Z,60.81
2018-08-10T22:14:09.246Z,60.92
2018-08-10T22:16:42.900Z,61.48
2018-08-10T22:19:16.563Z,61.12
2018-08-10T22:21:45.818Z,61.17
2018-08-10T22:24:14.960Z,61.16
2018-08-10T22:26:43.783Z,62.06
2018-08-10T22:29:12.441Z,61.96
2018-08-10T22:31:40.938Z,62.68
2018-08-10T22:34:09.448Z,62.99
2018-08-10T22:36:37.937Z,62.98
2018-08-10T22:39:08.509Z,62.09
2018-08-10T22:41:37.100Z,62.45
2018-08-10T22:44:05.701Z,63.24
2018-08-10T22:46:34.207Z,65.87
2018-08-10T22:49:02.670Z,67.12
2018-08-10T22:51:31.553Z,68.25
2018-08-10T22:53:59.998Z,70.50
2018-08-10T22:56:28.544Z,72.54
2018-08-10T22:58:57.108Z,74.15
2018-08-10T23:01:25.611Z,76.39
2018-08-10T23:03:54.570Z,76.28
2018-08-10T23:06:23.174Z,76.66
2018-08-10T23:08:52.121Z,74.02
2018-08-10T23:11:20.540Z,76.30
2018-08-10T23:13:49.064Z,78.33
2018-08-10T23:16:17.544Z,78.77
2018-08-10T23:18:46.085Z,79.06
2018-08-10T23:21:14.666Z,79.73
2018-08-10T23:23:43.173Z,80.33
2018-08-10T23:26:11.652Z,79.76
2018-08-10T23:28:40.431Z,81.48
2018-08-10T23:31:08.888Z,81.23
2018-08-10T23:33:37.394Z,81.60
2018-08-10T23:36:05.977Z,81.57
2018-08-10T23:38:34.461Z,82.24
2018-08-10T23:41:03.020Z,82.59
2018-08-10T23:43:31.593Z,82.64
2018-08-10T23:46:00.160Z,82.82
2018-08-10T23:48:28.676Z,83.04
2018-08-10T23:50:57.179Z,82.59
2018-08-10T23:53:25.723Z,82.90
2018-08-10T23:55:54.656Z,83.13
2018-08-10T23:58:23.257Z,82.30
